sensor_id;sensor_type;location;lat;lon;timestamp;pressure;altitude;pressure_sealevel;temperature;humidity
55044;BME280;54902;50.420;18.854;2023-02-28T00:00:04;102605.73;;;0.21;66.88
55044;BME280;54902;50.420;18.854;2023-02-28T00:00:41;102607.51;;;0.21;66.85
55044;BME280;54902;50.420;18.854;2023-02-28T00:01:14;102605.77;;;0.20;66.88
55044;BME280;54902;50.420;18.854;2023-02-28T00:01:46;102601.26;;;0.20;66.88
55044;BME280;54902;50.420;18.854;2023-02-28T00:02:16;102607.51;;;0.21;66.91
55044;BME280;54902;50.420;18.854;2023-02-28T00:02:48;102608.42;;;0.21;66.92
55044;BME280;54902;50.420;18.854;2023-02-28T00:03:19;102601.26;;;0.20;66.87
55044;BME280;54902;50.420;18.854;2023-02-28T00:03:51;102607.51;;;0.21;66.86
55044;BME280;54902;50.420;18.854;2023-02-28T00:04:22;102605.77;;;0.20;66.82
55044;BME280;54902;50.420;18.854;2023-02-28T00:04:53;102600.39;;;0.20;66.85
55044;BME280;54902;50.420;18.854;2023-02-28T00:05:34;102608.45;;;0.20;66.81
55044;BME280;54902;50.420;18.854;2023-02-28T00:06:06;102603.06;;;0.20;66.81
55044;BME280;54902;50.420;18.854;2023-02-28T00:06:39;102606.66;;;0.19;66.81
55044;BME280;54902;50.420;18.854;2023-02-28T00:07:12;102605.79;;;0.18;66.79
55044;BME280;54902;50.420;18.854;2023-02-28T00:07:43;102603.97;;;0.19;66.77
55044;BME280;54902;50.420;18.854;2023-02-28T00:08:14;102603.97;;;0.19;66.78
55044;BME280;54902;50.420;18.854;2023-02-28T00:08:45;102604.87;;;0.18;66.79
55044;BME280;54902;50.420;18.854;2023-02-28T00:09:16;102583.55;;;0.06;66.73
55044;BME280;54902;50.420;18.854;2023-02-28T00:09:47;102608.47;;;0.18;66.79
55044;BME280;54902;50.420;18.854;2023-02-28T00:10:20;102606.68;;;0.17;66.82
55044;BME280;54902;50.420;18.854;2023-02-28T00:10:53;102608.45;;;0.17;66.85
55044;BME280;54902;50.420;18.854;2023-02-28T00:11:24;102608.45;;;0.17;66.87
55044;BME280;54902;50.420;18.854;2023-02-28T00:11:55;102615.61;;;0.18;66.90
55044;BME280;54902;50.420;18.854;2023-02-28T00:12:26;102608.45;;;0.17;66.89
55044;BME280;54902;50.420;18.854;2023-02-28T00:13:04;102610.27;;;0.16;66.91
55044;BME280;54902;50.420;18.854;2023-02-28T00:13:37;102605.77;;;0.17;66.90
55044;BME280;54902;50.420;18.854;2023-02-28T00:14:08;102606.71;;;0.16;66.92
55044;BME280;54902;50.420;18.854;2023-02-28T00:14:39;102613.85;;;0.15;66.93
55044;BME280;54902;50.420;18.854;2023-02-28T00:15:10;102612.09;;;0.16;66.95
55044;BME280;54902;50.420;18.854;2023-02-28T00:15:41;102602.23;;;0.15;66.98
55044;BME280;54902;50.420;18.854;2023-02-28T00:16:16;102602.23;;;0.15;66.99
55044;BME280;54902;50.420;18.854;2023-02-28T00:16:47;102612.98;;;0.15;66.97
55044;BME280;54902;50.420;18.854;2023-02-28T00:17:18;102605.79;;;0.15;66.94
55044;BME280;54902;50.420;18.854;2023-02-28T00:17:52;102609.39;;;0.16;66.93
55044;BME280;54902;50.420;18.854;2023-02-28T00:18:23;102595.98;;;0.14;66.92
55044;BME280;54902;50.420;18.854;2023-02-28T00:18:54;102601.35;;;0.14;66.89
55044;BME280;54902;50.420;18.854;2023-02-28T00:19:25;102608.48;;;0.15;66.88
55044;BME280;54902;50.420;18.854;2023-02-28T00:19:56;102604.05;;;0.14;66.86
55044;BME280;54902;50.420;18.854;2023-02-28T00:20:31;102608.50;;;0.14;66.90
55044;BME280;54902;50.420;18.854;2023-02-28T00:21:03;102606.73;;;0.14;66.92
55044;BME280;54902;50.420;18.854;2023-02-28T00:21:34;102604.03;;;0.13;66.85
55044;BME280;54902;50.420;18.854;2023-02-28T00:22:06;102609.40;;;0.13;66.83
55044;BME280;54902;50.420;18.854;2023-02-28T00:22:39;102607.63;;;0.13;66.82
55044;BME280;54902;50.420;18.854;2023-02-28T00:23:10;102609.40;;;0.13;66.73
55044;BME280;54902;50.420;18.854;2023-02-28T00:23:41;102610.34;;;0.12;66.74
55044;BME280;54902;50.420;18.854;2023-02-28T00:24:12;102608.55;;;0.11;66.72
55044;BME280;54902;50.420;18.854;2023-02-28T00:24:43;102611.24;;;0.11;66.77
55044;BME280;54902;50.420;18.854;2023-02-28T00:25:16;102608.55;;;0.11;66.81
55044;BME280;54902;50.420;18.854;2023-02-28T00:25:48;102605.88;;;0.11;66.82
55044;BME280;54902;50.420;18.854;2023-02-28T00:26:19;102610.33;;;0.10;66.78
55044;BME280;54902;50.420;18.854;2023-02-28T00:26:50;102604.95;;;0.10;66.77
55044;BME280;54902;50.420;18.854;2023-02-28T00:27:21;102612.13;;;0.10;66.75
55044;BME280;54902;50.420;18.854;2023-02-28T00:27:52;102603.21;;;0.09;66.64
55044;BME280;54902;50.420;18.854;2023-02-28T00:28:23;102610.35;;;0.09;66.66
55044;BME280;54902;50.420;18.854;2023-02-28T00:28:54;102613.97;;;0.08;66.69
55044;BME280;54902;50.420;18.854;2023-02-28T00:29:25;102621.12;;;0.07;66.66
55044;BME280;54902;50.420;18.854;2023-02-28T00:29:56;102613.97;;;0.08;66.61
55044;BME280;54902;50.420;18.854;2023-02-28T00:30:27;102607.66;;;0.09;66.63
55044;BME280;54902;50.420;18.854;2023-02-28T00:30:58;102609.50;;;0.07;66.65
55044;BME280;54902;50.420;18.854;2023-02-28T00:31:30;102609.50;;;0.07;66.66
55044;BME280;54902;50.420;18.854;2023-02-28T00:32:01;102610.40;;;0.06;66.66
55044;BME280;54902;50.420;18.854;2023-02-28T00:32:32;102608.59;;;0.06;66.64
55044;BME280;54902;50.420;18.854;2023-02-28T00:33:05;102611.30;;;0.05;66.67
55044;BME280;54902;50.420;18.854;2023-02-28T00:33:35;102614.89;;;0.05;66.66
55044;BME280;54902;50.420;18.854;2023-02-28T00:34:06;102605.05;;;0.04;66.65
55044;BME280;54902;50.420;18.854;2023-02-28T00:34:37;102609.55;;;0.04;66.62
55044;BME280;54902;50.420;18.854;2023-02-28T00:35:10;102614.91;;;0.04;66.63
55044;BME280;54902;50.420;18.854;2023-02-28T00:35:41;102613.13;;;0.03;66.64
55044;BME280;54902;50.420;18.854;2023-02-28T00:36:12;102603.30;;;0.02;66.67
55044;BME280;54902;50.420;18.854;2023-02-28T00:36:43;102614.91;;;0.02;66.63
55044;BME280;54902;50.420;18.854;2023-02-28T00:37:19;102605.98;;;0.02;66.70
55044;BME280;54902;50.420;18.854;2023-02-28T00:37:50;102613.16;;;0.01;66.71
55044;BME280;54902;50.420;18.854;2023-02-28T00:38:21;102606.88;;;0.01;66.72
55044;BME280;54902;50.420;18.854;2023-02-28T00:38:52;102601.50;;;0.01;66.72
55044;BME280;54902;50.420;18.854;2023-02-28T00:39:22;102609.55;;;0.01;66.74
55044;BME280;54902;50.420;18.854;2023-02-28T00:39:53;102607.81;;;0.00;66.77
55044;BME280;54902;50.420;18.854;2023-02-28T00:40:24;102612.27;;;-0.01;66.75
55044;BME280;54902;50.420;18.854;2023-02-28T00:40:55;102602.43;;;0.00;66.75
55044;BME280;54902;50.420;18.854;2023-02-28T00:41:26;102612.27;;;-0.01;66.72
55044;BME280;54902;50.420;18.854;2023-02-28T00:41:57;102611.40;;;-0.01;66.71
55044;BME280;54902;50.420;18.854;2023-02-28T00:42:28;102614.09;;;-0.01;66.74
55044;BME280;54902;50.420;18.854;2023-02-28T00:42:59;102605.12;;;-0.02;66.68
55044;BME280;54902;50.420;18.854;2023-02-28T00:43:34;102602.45;;;-0.03;66.59
55044;BME280;54902;50.420;18.854;2023-02-28T00:44:06;102608.73;;;-0.02;66.58
55044;BME280;54902;50.420;18.854;2023-02-28T00:44:37;102602.45;;;-0.03;66.62
55044;BME280;54902;50.420;18.854;2023-02-28T00:45:08;102604.26;;;-0.03;66.65
55044;BME280;54902;50.420;18.854;2023-02-28T00:45:39;102608.72;;;-0.04;66.67
55044;BME280;54902;50.420;18.854;2023-02-28T00:46:10;102607.84;;;-0.04;66.69
55044;BME280;54902;50.420;18.854;2023-02-28T00:46:41;102609.66;;;-0.05;66.68
55044;BME280;54902;50.420;18.854;2023-02-28T00:47:12;102609.66;;;-0.05;66.72
55044;BME280;54902;50.420;18.854;2023-02-28T00:47:42;102606.97;;;-0.05;66.71
55044;BME280;54902;50.420;18.854;2023-02-28T00:48:13;102606.97;;;-0.05;66.70
55044;BME280;54902;50.420;18.854;2023-02-28T00:48:44;102609.68;;;-0.06;66.74
55044;BME280;54902;50.420;18.854;2023-02-28T00:49:15;102615.05;;;-0.06;66.77
55044;BME280;54902;50.420;18.854;2023-02-28T00:49:46;102611.45;;;-0.07;66.76
55044;BME280;54902;50.420;18.854;2023-02-28T00:50:18;102606.08;;;-0.07;66.79
55044;BME280;54902;50.420;18.854;2023-02-28T00:50:50;102606.98;;;-0.08;66.78
55044;BME280;54902;50.420;18.854;2023-02-28T00:51:21;102606.08;;;-0.07;66.78
55044;BME280;54902;50.420;18.854;2023-02-28T00:51:53;102607.91;;;-0.09;66.76
55044;BME280;54902;50.420;18.854;2023-02-28T00:52:24;102619.53;;;-0.08;66.77
55044;BME280;54902;50.420;18.854;2023-02-28T00:52:55;102619.53;;;-0.08;66.77
55044;BME280;54902;50.420;18.854;2023-02-28T00:53:26;102614.19;;;-0.10;66.78
55044;BME280;54902;50.420;18.854;2023-02-28T00:53:57;102616.87;;;-0.10;66.75
55044;BME280;54902;50.420;18.854;2023-02-28T00:54:28;102612.39;;;-0.11;66.77
55044;BME280;54902;50.420;18.854;2023-02-28T00:54:59;102614.19;;;-0.10;66.79
55044;BME280;54902;50.420;18.854;2023-02-28T00:55:30;102615.09;;;-0.11;66.82
55044;BME280;54902;50.420;18.854;2023-02-28T00:56:01;102616.87;;;-0.10;66.82
55044;BME280;54902;50.420;18.854;2023-02-28T00:56:33;102609.72;;;-0.11;66.84
55044;BME280;54902;50.420;18.854;2023-02-28T00:57:04;102615.09;;;-0.11;66.85
55044;BME280;54902;50.420;18.854;2023-02-28T00:57:35;102604.48;;;-0.23;66.88
55044;BME280;54902;50.420;18.854;2023-02-28T00:58:06;102618.66;;;-0.12;66.89
55044;BME280;54902;50.420;18.854;2023-02-28T00:58:36;102614.23;;;-0.13;66.92
55044;BME280;54902;50.420;18.854;2023-02-28T00:59:08;102619.60;;;-0.13;66.91
55044;BME280;54902;50.420;18.854;2023-02-28T00:59:39;102611.55;;;-0.13;66.96
55044;BME280;54902;50.420;18.854;2023-02-28T01:00:10;102623.16;;;-0.12;66.97
55044;BME280;54902;50.420;18.854;2023-02-28T01:00:41;102616.00;;;-0.13;67.00
55044;BME280;54902;50.420;18.854;2023-02-28T01:01:12;102615.13;;;-0.14;67.03
55044;BME280;54902;50.420;18.854;2023-02-28T01:01:45;102614.21;;;-0.14;67.05
55044;BME280;54902;50.420;18.854;2023-02-28T01:02:17;102617.81;;;-0.14;67.11
55044;BME280;54902;50.420;18.854;2023-02-28T01:02:50;102620.49;;;-0.14;67.12
55044;BME280;54902;50.420;18.854;2023-02-28T01:03:21;102619.58;;;-0.14;67.13
55044;BME280;54902;50.420;18.854;2023-02-28T01:03:53;102616.91;;;-0.13;67.19
55044;BME280;54902;50.420;18.854;2023-02-28T01:04:24;102615.13;;;-0.14;67.22
55044;BME280;54902;50.420;18.854;2023-02-28T01:04:54;102615.13;;;-0.14;67.23
55044;BME280;54902;50.420;18.854;2023-02-28T01:05:27;102615.13;;;-0.14;67.27
55044;BME280;54902;50.420;18.854;2023-02-28T01:05:58;102612.44;;;-0.14;67.32
55044;BME280;54902;50.420;18.854;2023-02-28T01:06:29;102608.85;;;-0.13;67.31
55044;BME280;54902;50.420;18.854;2023-02-28T01:07:00;102610.63;;;-0.13;67.31
55044;BME280;54902;50.420;18.854;2023-02-28T01:07:30;102608.84;;;-0.14;67.30
55044;BME280;54902;50.420;18.854;2023-02-28T01:08:02;102608.85;;;-0.13;67.28
55044;BME280;54902;50.420;18.854;2023-02-28T01:08:33;102611.55;;;-0.13;67.30
55044;BME280;54902;50.420;18.854;2023-02-28T01:09:05;102609.77;;;-0.14;67.30
55044;BME280;54902;50.420;18.854;2023-02-28T01:09:36;102608.85;;;-0.13;67.30
55044;BME280;54902;50.420;18.854;2023-02-28T01:10:08;102608.84;;;-0.14;67.29
55044;BME280;54902;50.420;18.854;2023-02-28T01:10:40;102609.77;;;-0.14;67.31
55044;BME280;54902;50.420;18.854;2023-02-28T01:11:12;102600.80;;;-0.16;67.29
55044;BME280;54902;50.420;18.854;2023-02-28T01:11:44;102612.46;;;-0.15;67.29
55044;BME280;54902;50.420;18.854;2023-02-28T01:12:16;102601.72;;;-0.15;67.29
55044;BME280;54902;50.420;18.854;2023-02-28T01:12:46;102602.60;;;-0.15;67.28
55044;BME280;54902;50.420;18.854;2023-02-28T01:13:18;102603.50;;;-0.16;67.26
55044;BME280;54902;50.420;18.854;2023-02-28T01:13:50;102614.23;;;-0.16;67.27
55044;BME280;54902;50.420;18.854;2023-02-28T01:14:21;102611.55;;;-0.16;67.27
55044;BME280;54902;50.420;18.854;2023-02-28T01:14:52;102614.23;;;-0.16;67.27
55044;BME280;54902;50.420;18.854;2023-02-28T01:15:23;102607.12;;;-0.17;67.28
55044;BME280;54902;50.420;18.854;2023-02-28T01:15:55;102616.92;;;-0.16;67.30
55044;BME280;54902;50.420;18.854;2023-02-28T01:16:27;102613.38;;;-0.18;67.31
55044;BME280;54902;50.420;18.854;2023-02-28T01:16:58;102620.53;;;-0.17;67.31
55044;BME280;54902;50.420;18.854;2023-02-28T01:17:29;102620.53;;;-0.17;67.33
55044;BME280;54902;50.420;18.854;2023-02-28T01:18:00;102613.38;;;-0.18;67.35
55044;BME280;54902;50.420;18.854;2023-02-28T01:18:31;102616.06;;;-0.18;67.36
55044;BME280;54902;50.420;18.854;2023-02-28T01:19:02;102617.84;;;-0.18;67.37
55044;BME280;54902;50.420;18.854;2023-02-28T01:19:33;102610.72;;;-0.19;67.37
55044;BME280;54902;50.420;18.854;2023-02-28T01:20:06;102608.90;;;-0.19;67.37
55044;BME280;54902;50.420;18.854;2023-02-28T01:20:38;102610.70;;;-0.18;67.41
55044;BME280;54902;50.420;18.854;2023-02-28T01:21:13;102610.72;;;-0.19;67.41
55044;BME280;54902;50.420;18.854;2023-02-28T01:21:44;102608.90;;;-0.19;67.38
55044;BME280;54902;50.420;18.854;2023-02-28T01:22:15;102610.72;;;-0.19;67.42
55044;BME280;54902;50.420;18.854;2023-02-28T01:22:46;102608.90;;;-0.19;67.42
55044;BME280;54902;50.420;18.854;2023-02-28T01:23:18;102609.80;;;-0.20;67.41
55044;BME280;54902;50.420;18.854;2023-02-28T01:23:49;102608.05;;;-0.21;67.38
55044;BME280;54902;50.420;18.854;2023-02-28T01:24:20;102611.61;;;-0.20;67.39
55044;BME280;54902;50.420;18.854;2023-02-28T01:24:51;102606.23;;;-0.20;67.42
55044;BME280;54902;50.420;18.854;2023-02-28T01:25:22;102608.94;;;-0.20;67.43
55044;BME280;54902;50.420;18.854;2023-02-28T01:25:52;102612.50;;;-0.20;67.43
55044;BME280;54902;50.420;18.854;2023-02-28T01:26:24;102611.63;;;-0.22;67.44
55044;BME280;54902;50.420;18.854;2023-02-28T01:26:55;102607.14;;;-0.21;67.47
55044;BME280;54902;50.420;18.854;2023-02-28T01:27:25;102614.33;;;-0.22;67.47
55044;BME280;54902;50.420;18.854;2023-02-28T01:27:58;102614.33;;;-0.22;67.47
55044;BME280;54902;50.420;18.854;2023-02-28T01:28:29;102603.58;;;-0.22;67.49
55044;BME280;54902;50.420;18.854;2023-02-28T01:29:00;102595.53;;;-0.22;67.49
55044;BME280;54902;50.420;18.854;2023-02-28T01:29:31;102606.27;;;-0.22;67.51
55044;BME280;54902;50.420;18.854;2023-02-28T01:30:02;102608.95;;;-0.22;67.51
55044;BME280;54902;50.420;18.854;2023-02-28T01:30:34;102610.73;;;-0.22;67.50
55044;BME280;54902;50.420;18.854;2023-02-28T01:31:05;102612.54;;;-0.23;67.51
55044;BME280;54902;50.420;18.854;2023-02-28T01:31:36;102607.16;;;-0.23;67.51
55044;BME280;54902;50.420;18.854;2023-02-28T01:32:07;102608.07;;;-0.24;67.53
55044;BME280;54902;50.420;18.854;2023-02-28T01:32:38;102599.20;;;-0.32;67.53
55044;BME280;54902;50.420;18.854;2023-02-28T01:33:09;102617.02;;;-0.22;67.52
55044;BME280;54902;50.420;18.854;2023-02-28T01:33:40;102615.22;;;-0.23;67.52
55044;BME280;54902;50.420;18.854;2023-02-28T01:34:11;102608.07;;;-0.24;67.53
55044;BME280;54902;50.420;18.854;2023-02-28T01:34:42;102615.22;;;-0.23;67.53
55044;BME280;54902;50.420;18.854;2023-02-28T01:35:13;102613.44;;;-0.24;67.51
55044;BME280;54902;50.420;18.854;2023-02-28T01:35:44;102612.56;;;-0.24;67.51
55044;BME280;54902;50.420;18.854;2023-02-28T01:36:21;102607.19;;;-0.24;67.51
55044;BME280;54902;50.420;18.854;2023-02-28T01:36:53;102611.68;;;-0.25;67.52
55044;BME280;54902;50.420;18.854;2023-02-28T01:37:24;102617.05;;;-0.25;67.55
55044;BME280;54902;50.420;18.854;2023-02-28T01:37:55;102616.11;;;-0.24;67.58
55044;BME280;54902;50.420;18.854;2023-02-28T01:38:26;102616.11;;;-0.24;67.62
55044;BME280;54902;50.420;18.854;2023-02-28T01:38:57;102618.81;;;-0.24;67.62
55044;BME280;54902;50.420;18.854;2023-02-28T01:39:28;102623.29;;;-0.24;67.62
55044;BME280;54902;50.420;18.854;2023-02-28T01:39:58;102611.68;;;-0.25;67.63
55044;BME280;54902;50.420;18.854;2023-02-28T01:40:30;102611.68;;;-0.25;67.64
55044;BME280;54902;50.420;18.854;2023-02-28T01:41:01;102618.81;;;-0.24;67.67
55044;BME280;54902;50.420;18.854;2023-02-28T01:41:34;102619.71;;;-0.23;67.70
55044;BME280;54902;50.420;18.854;2023-02-28T01:42:05;102615.22;;;-0.23;67.71
55044;BME280;54902;50.420;18.854;2023-02-28T01:42:35;102617.91;;;-0.23;67.73
55044;BME280;54902;50.420;18.854;2023-02-28T01:43:17;102620.58;;;-0.23;67.72
55044;BME280;54902;50.420;18.854;2023-02-28T01:45:23;102599.20;;;-0.32;67.67
55044;BME280;54902;50.420;18.854;2023-02-28T01:45:57;102610.76;;;-0.24;67.73
55044;BME280;54902;50.420;18.854;2023-02-28T01:46:30;102609.85;;;-0.23;67.73
55044;BME280;54902;50.420;18.854;2023-02-28T01:47:01;102611.63;;;-0.22;67.75
55044;BME280;54902;50.420;18.854;2023-02-28T01:47:39;102611.63;;;-0.22;67.79
55044;BME280;54902;50.420;18.854;2023-02-28T01:48:11;102612.54;;;-0.23;67.78
55044;BME280;54902;50.420;18.854;2023-02-28T01:48:50;102607.16;;;-0.23;67.83
55044;BME280;54902;50.420;18.854;2023-02-28T01:49:21;102614.33;;;-0.22;67.84
55044;BME280;54902;50.420;18.854;2023-02-28T01:49:53;102605.36;;;-0.22;67.69
55044;BME280;54902;50.420;18.854;2023-02-28T01:50:28;102611.63;;;-0.22;67.85
55044;BME280;54902;50.420;18.854;2023-02-28T01:51:05;102608.95;;;-0.22;67.87
55044;BME280;54902;50.420;18.854;2023-02-28T01:52:25;102609.80;;;-0.20;67.90
55044;BME280;54902;50.420;18.854;2023-02-28T01:53:00;102608.05;;;-0.21;67.91
55044;BME280;54902;50.420;18.854;2023-02-28T01:53:36;102608.03;;;-0.19;67.91
55044;BME280;54902;50.420;18.854;2023-02-28T01:54:15;102608.03;;;-0.19;67.92
55044;BME280;54902;50.420;18.854;2023-02-28T01:54:52;102600.85;;;-0.19;67.91
55044;BME280;54902;50.420;18.854;2023-02-28T01:55:26;102611.59;;;-0.19;67.92
55044;BME280;54902;50.420;18.854;2023-02-28T01:55:59;102609.78;;;-0.18;67.90
55044;BME280;54902;50.420;18.854;2023-02-28T01:56:33;102605.36;;;-0.19;67.91
55044;BME280;54902;50.420;18.854;2023-02-28T01:57:13;102602.65;;;-0.18;67.89
55044;BME280;54902;50.420;18.854;2023-02-28T01:57:50;102603.54;;;-0.19;67.90
55044;BME280;54902;50.420;18.854;2023-02-28T01:58:21;102607.09;;;-0.18;67.88
55044;BME280;54902;50.420;18.854;2023-02-28T01:58:54;102605.36;;;-0.19;67.89
55044;BME280;54902;50.420;18.854;2023-02-28T01:59:35;102605.36;;;-0.19;67.90
55044;BME280;54902;50.420;18.854;2023-02-28T02:00:15;102606.23;;;-0.19;67.88
55044;BME280;54902;50.420;18.854;2023-02-28T02:00:47;102606.23;;;-0.19;67.91
55044;BME280;54902;50.420;18.854;2023-02-28T02:01:20;102584.85;;;-0.28;67.91
55044;BME280;54902;50.420;18.854;2023-02-28T02:01:52;102606.23;;;-0.19;67.91
55044;BME280;54902;50.420;18.854;2023-02-28T02:02:27;102599.98;;;-0.19;67.92
55044;BME280;54902;50.420;18.854;2023-02-28T02:03:04;102602.69;;;-0.21;67.92
55044;BME280;54902;50.420;18.854;2023-02-28T02:03:36;102590.14;;;-0.20;67.92
55044;BME280;54902;50.420;18.854;2023-02-28T02:04:07;102601.76;;;-0.20;67.92
55044;BME280;54902;50.420;18.854;2023-02-28T02:04:49;102601.76;;;-0.20;67.94
55044;BME280;54902;50.420;18.854;2023-02-28T02:05:24;102600.00;;;-0.21;67.92
55044;BME280;54902;50.420;18.854;2023-02-28T02:05:55;102594.63;;;-0.21;67.93
55044;BME280;54902;50.420;18.854;2023-02-28T02:06:48;102597.33;;;-0.21;67.92
55044;BME280;54902;50.420;18.854;2023-02-28T02:07:10;102599.07;;;-0.20;67.94
55044;BME280;54902;50.420;18.854;2023-02-28T02:07:44;102598.20;;;-0.20;67.93
55044;BME280;54902;50.420;18.854;2023-02-28T02:08:22;102594.63;;;-0.21;67.94
55044;BME280;54902;50.420;18.854;2023-02-28T02:08:53;102595.53;;;-0.22;67.92
55044;BME280;54902;50.420;18.854;2023-02-28T02:09:25;102592.84;;;-0.22;67.92
55044;BME280;54902;50.420;18.854;2023-02-28T02:10:24;102597.33;;;-0.21;67.90
55044;BME280;54902;50.420;18.854;2023-02-28T02:11:05;102598.22;;;-0.22;67.89
55044;BME280;54902;50.420;18.854;2023-02-28T02:11:24;102591.06;;;-0.23;67.87
55044;BME280;54902;50.420;18.854;2023-02-28T02:11:56;102593.73;;;-0.23;67.85
55044;BME280;54902;50.420;18.854;2023-02-28T02:12:41;102588.41;;;-0.24;67.86
55044;BME280;54902;50.420;18.854;2023-02-28T02:16:23;102588.43;;;-0.29;67.69
55044;BME280;54902;50.420;18.854;2023-02-28T02:17:04;102588.43;;;-0.29;67.69
55044;BME280;54902;50.420;18.854;2023-02-28T02:17:44;102579.53;;;-0.31;67.70
55044;BME280;54902;50.420;18.854;2023-02-28T02:25:32;102592.14;;;-0.39;67.85
55044;BME280;54902;50.420;18.854;2023-02-28T02:26:20;102596.59;;;-0.39;67.88
55044;BME280;54902;50.420;18.854;2023-02-28T02:26:58;102593.93;;;-0.41;67.89
55044;BME280;54902;50.420;18.854;2023-02-28T02:28:39;102586.81;;;-0.45;67.91
55044;BME280;54902;50.420;18.854;2023-02-28T02:29:15;102585.92;;;-0.44;67.94
55044;BME280;54902;50.420;18.854;2023-02-28T02:36:23;102593.13;;;-0.49;68.00
55044;BME280;54902;50.420;18.854;2023-02-28T02:37:03;102594.07;;;-0.50;68.00
55044;BME280;54902;50.420;18.854;2023-02-28T02:37:42;102594.07;;;-0.50;68.01
55044;BME280;54902;50.420;18.854;2023-02-28T02:39:59;102596.73;;;-0.51;67.99
55044;BME280;54902;50.420;18.854;2023-02-28T02:40:35;102598.56;;;-0.53;67.97
55044;BME280;54902;50.420;18.854;2023-02-28T02:41:54;102599.45;;;-0.54;68.00
55044;BME280;54902;50.420;18.854;2023-02-28T02:42:36;102603.02;;;-0.54;68.00
55044;BME280;54902;50.420;18.854;2023-02-28T02:43:19;102601.26;;;-0.55;68.01
55044;BME280;54902;50.420;18.854;2023-02-28T02:44:05;102595.92;;;-0.56;67.99
55044;BME280;54902;50.420;18.854;2023-02-28T02:44:48;102603.05;;;-0.57;68.00
55044;BME280;54902;50.420;18.854;2023-02-28T02:45:30;102599.50;;;-0.57;68.01
55044;BME280;54902;50.420;18.854;2023-02-28T02:46:48;102596.83;;;-0.58;68.01
55044;BME280;54902;50.420;18.854;2023-02-28T02:47:25;102597.73;;;-0.59;68.00
55044;BME280;54902;50.420;18.854;2023-02-28T02:47:59;102600.41;;;-0.59;68.00
55044;BME280;54902;50.420;18.854;2023-02-28T02:48:34;102590.58;;;-0.60;68.00
55044;BME280;54902;50.420;18.854;2023-02-28T02:49:10;102601.30;;;-0.60;68.03
55044;BME280;54902;50.420;18.854;2023-02-28T02:49:48;102595.05;;;-0.61;68.03
55044;BME280;54902;50.420;18.854;2023-02-28T02:50:29;102596.85;;;-0.63;68.04
55044;BME280;54902;50.420;18.854;2023-02-28T02:51:10;102591.50;;;-0.64;68.01
55044;BME280;54902;50.420;18.854;2023-02-28T02:51:44;102595.98;;;-0.63;68.01
55044;BME280;54902;50.420;18.854;2023-02-28T02:52:21;102598.65;;;-0.62;68.04
55044;BME280;54902;50.420;18.854;2023-02-28T02:52:56;102600.44;;;-0.64;68.04
55044;BME280;54902;50.420;18.854;2023-02-28T02:53:36;102599.56;;;-0.64;68.04
55044;BME280;54902;50.420;18.854;2023-02-28T02:54:14;102592.40;;;-0.65;68.04
55044;BME280;54902;50.420;18.854;2023-02-28T02:54:50;102597.78;;;-0.65;68.04
55044;BME280;54902;50.420;18.854;2023-02-28T02:55:23;102596.01;;;-0.66;68.04
55044;BME280;54902;50.420;18.854;2023-02-28T02:55:55;102593.34;;;-0.66;68.05
55044;BME280;54902;50.420;18.854;2023-02-28T02:56:30;102590.66;;;-0.66;68.06
55044;BME280;54902;50.420;18.854;2023-02-28T02:57:15;102595.10;;;-0.67;68.06
55044;BME280;54902;50.420;18.854;2023-02-28T02:57:56;102600.50;;;-0.68;68.08
55044;BME280;54902;50.420;18.854;2023-02-28T02:58:33;102593.32;;;-0.68;68.09
55044;BME280;54902;50.420;18.854;2023-02-28T02:59:09;102596.94;;;-0.69;68.10
55044;BME280;54902;50.420;18.854;2023-02-28T02:59:43;102592.45;;;-0.68;68.10
55044;BME280;54902;50.420;18.854;2023-02-28T03:00:18;102596.02;;;-0.69;68.10
55044;BME280;54902;50.420;18.854;2023-02-28T03:00:54;102584.44;;;-0.71;68.08
55044;BME280;54902;50.420;18.854;2023-02-28T03:01:29;102598.72;;;-0.71;68.10
55044;BME280;54902;50.420;18.854;2023-02-28T03:02:04;102590.69;;;-0.72;68.08
55044;BME280;54902;50.420;18.854;2023-02-28T03:02:38;102594.27;;;-0.73;68.06
55044;BME280;54902;50.420;18.854;2023-02-28T03:03:12;102597.87;;;-0.73;68.08
55044;BME280;54902;50.420;18.854;2023-02-28T03:03:45;102593.40;;;-0.74;68.07
55044;BME280;54902;50.420;18.854;2023-02-28T03:04:19;102594.27;;;-0.73;68.08
55044;BME280;54902;50.420;18.854;2023-02-28T03:04:53;102595.20;;;-0.74;68.10
55044;BME280;54902;50.420;18.854;2023-02-28T03:05:41;102595.20;;;-0.74;68.10
55044;BME280;54902;50.420;18.854;2023-02-28T03:06:14;102599.66;;;-0.75;68.11
55044;BME280;54902;50.420;18.854;2023-02-28T03:06:45;102601.47;;;-0.75;68.11
55044;BME280;54902;50.420;18.854;2023-02-28T03:07:16;102594.35;;;-0.79;68.01
55044;BME280;54902;50.420;18.854;2023-02-28T03:07:47;102594.31;;;-0.76;68.10
55044;BME280;54902;50.420;18.854;2023-02-28T03:08:18;102592.52;;;-0.77;68.12
55044;BME280;54902;50.420;18.854;2023-02-28T03:08:50;102589.87;;;-0.79;68.11
55044;BME280;54902;50.420;18.854;2023-02-28T03:09:25;102594.35;;;-0.79;68.13
55044;BME280;54902;50.420;18.854;2023-02-28T03:09:57;102589.87;;;-0.79;68.14
55044;BME280;54902;50.420;18.854;2023-02-28T03:10:36;102584.51;;;-0.80;68.13
55044;BME280;54902;50.420;18.854;2023-02-28T03:11:13;102587.20;;;-0.80;68.12
55044;BME280;54902;50.420;18.854;2023-02-28T03:11:45;102593.45;;;-0.81;68.13
55044;BME280;54902;50.420;18.854;2023-02-28T03:12:16;102587.20;;;-0.82;68.13
55044;BME280;54902;50.420;18.854;2023-02-28T03:12:54;102593.48;;;-0.83;68.14
55044;BME280;54902;50.420;18.854;2023-02-28T03:15:11;102585.45;;;-0.84;68.17
55044;BME280;54902;50.420;18.854;2023-02-28T03:20:07;102587.27;;;-0.89;68.17
55044;BME280;54902;50.420;18.854;2023-02-28T03:20:49;102585.48;;;-0.90;68.17
55044;BME280;54902;50.420;18.854;2023-02-28T03:21:34;102589.09;;;-0.91;68.17